Time;durP1;ratioP1;P1;durP2;ratioP2;P2;SDS_P1;SDS_P2;PMS_P1;PMS_P2;Temp;Humidity;BMP_temperature;BMP_pressure;BME280_temperature;BME280_humidity;BME280_pressure;Samples;Min_cycle;Max_cycle;Signal;HPM_P1;HPM_P2
2022/11/16 12:28:10;;;;;;;25.75;13.68;;;;;;;7.66;100.00;99480.75;5326286;23;20340;-95
2022/11/16 12:31:29;;;;;;;;;;;;;;;;;;;;;
2022/11/16 12:35:01;;;;;;;25.52;14.50;;;;;;;7.77;100.00;99473.34;5157496;28;20042;-96
2022/11/16 12:38:29;;;;;;;;;;;;;;;;;;;;;
2022/11/16 12:41:06;;;;;;;26.80;14.90;;;;;;;7.72;100.00;99481.31;5136294;29;20027;-95
2022/11/16 12:48:06;;;;;;;28.63;15.80;;;;;;;7.68;100.00;99484.97;5140350;28;20062;-96
2022/11/16 12:51:36;;;;;;;24.73;13.98;;;;;;;7.74;100.00;99491.66;5123942;29;20047;-96
2022/11/16 13:00:17;;;;;;;;;;;;;;;;;;;;;
2022/11/16 13:03:19;;;;;;;;;;;;;;;;;;;;;
2022/11/16 13:09:47;;;;;;;25.25;14.32;;;;;;;7.77;100.00;99488.94;5065132;29;20086;-94
2022/11/16 13:16:14;;;;;;;;;;;;;;;;;;;;;
2022/11/16 13:19:33;;;;;;;21.35;12.82;;;;;;;7.73;100.00;99482.19;5112800;29;20556;-94
2022/11/16 13:26:08;;;;;;;;;;;;;;;;;;;;;
2022/11/16 13:29:29;;;;;;;25.02;14.20;;;;;;;7.72;100.00;99480.50;5050386;29;20085;-96
2022/11/16 13:36:28;;;;;;;;;;;;;;;;;;;;;
2022/11/16 13:39:23;;;;;;;21.38;12.55;;;;;;;7.66;100.00;99483.34;5061916;28;20040;-94
2022/11/16 13:46:16;;;;;;;;;;;;;;;;;;;;;
2022/11/16 13:49:47;;;;;;;;;;;;;;;;;;;;;
2022/11/16 13:56:39;;;;;;;;;;;;;;;;;;;;;
2022/11/16 13:59:43;;;;;;;21.00;12.20;;;;;;;7.74;100.00;99468.25;5032478;29;20046;-95
2022/11/16 14:03:07;;;;;;;21.05;11.80;;;;;;;7.67;100.00;99459.03;5101080;29;20047;-95
2022/11/16 14:16:54;;;;;;;23.05;12.27;;;;;;;7.56;100.00;99459.47;5095791;28;20051;-96
2022/11/16 14:19:53;;;;;;;;;;;;;;;;;;;;;
2022/11/16 14:26:53;;;;;;;;;;;;;;;;;;;;;
2022/11/16 16:16:27;;;;;;;10.13;5.75;;;;;;;7.48;100.00;99460.69;5273282;23;20052;-76
2022/11/16 16:21:44;;;;;;;11.13;6.03;;;;;;;7.43;100.00;99471.28;5848192;23;20054;-75
2022/11/16 16:24:42;;;;;;;10.23;6.20;;;;;;;7.47;100.00;99472.84;5100343;28;20034;-76
2022/11/16 16:27:27;;;;;;;10.57;5.80;;;;;;;7.44;100.00;99475.56;5068689;29;20453;-77
2022/11/16 16:30:03;;;;;;;11.15;6.28;;;;;;;7.47;100.00;99470.25;5131578;28;20503;-76
2022/11/16 16:32:36;;;;;;;10.82;5.90;;;;;;;7.41;100.00;99470.50;5073464;28;20029;-76
2022/11/16 16:40:28;;;;;;;10.00;5.35;;;;;;;7.39;100.00;99471.47;5328869;23;20415;-75
2022/11/16 16:42:59;;;;;;;8.63;4.90;;;;;;;7.36;100.00;99467.22;5097821;28;20057;-76
2022/11/16 16:45:36;;;;;;;9.98;5.60;;;;;;;7.52;100.00;99473.50;5110231;28;20034;-76
2022/11/16 16:48:10;;;;;;;9.02;5.32;;;;;;;7.37;100.00;99476.72;5130376;28;20031;-74
2022/11/16 16:50:43;;;;;;;10.18;5.50;;;;;;;7.37;100.00;99474.13;5106897;28;20019;-73
2022/11/16 16:53:14;;;;;;;9.20;4.95;;;;;;;7.34;100.00;99469.03;5116885;28;20124;-71
2022/11/16 17:06:25;;;;;;;9.50;5.07;;;;;;;7.17;100.00;99465.44;5379881;23;20399;-77
2022/11/16 17:08:56;;;;;;;7.85;4.90;;;;;;;7.22;100.00;99460.03;5120494;28;20036;-76
2022/11/16 17:11:27;;;;;;;8.30;5.00;;;;;;;7.22;100.00;99465.25;5070534;28;20047;-76
2022/11/16 17:13:58;;;;;;;7.80;4.50;;;;;;;7.25;100.00;99462.53;5098269;28;20105;-76
2022/11/16 17:16:29;;;;;;;7.82;4.93;;;;;;;7.26;100.00;99477.22;5105961;28;20150;-75
2022/11/16 17:19:00;;;;;;;8.45;4.82;;;;;;;7.15;100.00;99471.59;5109972;28;20033;-75
2022/11/16 17:21:30;;;;;;;9.05;5.20;;;;;;;7.27;100.00;99476.31;5051587;28;20513;-77
2022/11/16 17:26:47;;;;;;;7.90;4.72;;;;;;;7.31;100.00;99489.97;5505162;23;20300;-76
2022/11/16 17:42:39;;;;;;;9.38;5.35;;;;;;;7.31;100.00;99470.91;5985353;23;20057;-78
2022/11/16 17:45:11;;;;;;;7.90;4.30;;;;;;;7.26;100.00;99479.81;5075849;28;20083;-79
2022/11/16 17:58:22;;;;;;;7.28;4.38;;;;;;;7.11;100.00;99465.66;6065630;23;20016;-73
2022/11/16 18:00:53;;;;;;;7.85;4.35;;;;;;;7.16;100.00;99463.75;5081988;28;20029;-72
2022/11/16 18:03:24;;;;;;;8.85;4.97;;;;;;;7.15;100.00;99451.69;5090196;28;20051;-73
2022/11/16 18:06:03;;;;;;;16.65;9.80;;;;;;;7.18;100.00;99461.06;5089194;28;20148;-74
2022/11/16 18:08:35;;;;;;;7.10;4.80;;;;;;;7.23;100.00;99460.00;5105938;28;20098;-74
2022/11/16 18:11:14;;;;;;;6.95;4.00;;;;;;;7.28;100.00;99465.00;5118272;28;20021;-74
2022/11/16 18:13:44;;;;;;;8.50;4.03;;;;;;;7.25;100.00;99465.16;5095722;28;20036;-73
2022/11/16 18:16:18;;;;;;;5.78;3.80;;;;;;;7.29;100.00;99465.78;5092334;28;20488;-73
2022/11/16 18:18:57;;;;;;;7.10;4.10;;;;;;;7.31;100.00;99468.31;5097148;28;20048;-74
2022/11/16 18:21:28;;;;;;;7.75;4.53;;;;;;;7.18;100.00;99461.94;5121517;28;20056;-74
2022/11/16 18:23:59;;;;;;;8.88;5.20;;;;;;;7.25;100.00;99458.19;5099916;28;20036;-74
2022/11/16 18:26:30;;;;;;;9.75;5.68;;;;;;;7.16;100.00;99468.09;5087813;28;20086;-74
2022/11/16 18:29:00;;;;;;;6.60;3.70;;;;;;;7.29;100.00;99463.19;5121360;28;20032;-74
2022/11/16 18:31:32;;;;;;;8.25;4.60;;;;;;;7.17;100.00;99473.25;5094322;28;20186;-73
2022/11/16 18:34:03;;;;;;;9.52;4.95;;;;;;;7.18;100.00;99463.69;5092686;28;20091;-73
2022/11/16 18:36:34;;;;;;;7.25;4.28;;;;;;;7.19;100.00;99462.78;5095909;28;20490;-73
2022/11/16 18:39:05;;;;;;;7.53;4.50;;;;;;;7.20;100.00;99459.25;5343351;23;20130;-73
2022/11/16 18:41:43;;;;;;;5.35;3.47;;;;;;;7.26;100.00;99461.63;5049829;28;20656;-74
2022/11/16 18:44:14;;;;;;;8.95;5.90;;;;;;;7.24;100.00;99458.25;5054325;29;20399;-73
2022/11/16 18:46:45;;;;;;;6.55;4.28;;;;;;;7.20;100.00;99465.31;5049825;29;20033;-74
2022/11/16 18:49:15;;;;;;;8.48;5.07;;;;;;;7.16;100.00;99458.56;5061341;29;20314;-74
2022/11/16 18:51:46;;;;;;;10.13;5.70;;;;;;;7.18;100.00;99451.56;5022117;29;20515;-74
2022/11/16 18:54:17;;;;;;;10.27;6.15;;;;;;;7.19;100.00;99449.78;5066043;29;20454;-74
2022/11/16 18:56:47;;;;;;;9.77;6.10;;;;;;;7.23;100.00;99460.00;5055147;29;20452;-74
2022/11/16 18:59:18;;;;;;;10.63;6.55;;;;;;;7.17;100.00;99460.25;5047931;29;20045;-74
2022/11/16 19:01:49;;;;;;;10.57;5.70;;;;;;;7.17;100.00;99449.00;5065070;28;20030;-74
2022/11/16 19:04:19;;;;;;;11.10;6.93;;;;;;;7.11;100.00;99454.44;5053970;29;20033;-73
2022/11/16 19:06:50;;;;;;;11.85;6.05;;;;;;;7.10;100.00;99457.97;5092586;29;20068;-74
2022/11/16 19:09:21;;;;;;;11.02;5.57;;;;;;;7.08;100.00;99455.41;5095785;29;20505;-74
2022/11/16 19:11:52;;;;;;;8.68;4.90;;;;;;;7.28;100.00;99454.63;5044330;29;20040;-73
2022/11/16 19:14:22;;;;;;;6.50;3.72;;;;;;;7.22;100.00;99459.13;5016499;29;20539;-73
2022/11/16 19:16:53;;;;;;;4.50;2.80;;;;;;;7.09;100.00;99451.06;5088438;29;20247;-74
2022/11/16 19:19:26;;;;;;;3.65;2.13;;;;;;;7.10;100.00;99452.75;5061828;29;20061;-73
2022/11/16 19:32:37;;;;;;;4.45;2.45;;;;;;;6.97;100.00;99457.56;5868677;23;20273;-73
2022/11/16 19:35:10;;;;;;;4.15;1.80;;;;;;;6.95;100.00;99443.78;5083282;28;20037;-74
2022/11/16 19:37:42;;;;;;;3.78;1.80;;;;;;;7.02;100.00;99444.41;5095593;28;20030;-74
2022/11/16 19:40:12;;;;;;;3.42;1.90;;;;;;;6.87;100.00;99439.81;5103149;28;20483;-74
2022/11/16 19:42:43;;;;;;;2.65;1.80;;;;;;;6.91;100.00;99433.63;5082304;28;20035;-74
2022/11/16 19:45:13;;;;;;;3.40;2.00;;;;;;;6.93;100.00;99429.19;5087641;28;20073;-73
2022/11/16 19:47:44;;;;;;;3.80;2.28;;;;;;;6.87;100.00;99429.41;5063280;28;20573;-74
2022/11/16 19:50:15;;;;;;;4.20;2.30;;;;;;;6.87;100.00;99430.28;5117780;28;20035;-74
2022/11/16 19:52:46;;;;;;;3.60;1.98;;;;;;;6.86;100.00;99438.97;5084828;28;20535;-74
2022/11/16 19:55:17;;;;;;;4.78;2.00;;;;;;;6.87;100.00;99432.00;5101723;28;20019;-74
2022/11/16 19:57:48;;;;;;;3.40;1.95;;;;;;;6.87;100.00;99438.06;5050375;28;20054;-74
2022/11/16 20:00:19;;;;;;;3.63;1.80;;;;;;;6.79;100.00;99444.47;5094753;28;20102;-73
2022/11/16 20:02:54;;;;;;;3.42;2.13;;;;;;;6.82;100.00;99441.75;5095021;28;20048;-73
2022/11/16 20:05:26;;;;;;;2.28;1.55;;;;;;;6.93;100.00;99434.41;5098671;28;20023;-73
2022/11/16 20:07:57;;;;;;;2.97;1.80;;;;;;;6.90;100.00;99429.31;5044866;28;20036;-74
2022/11/16 20:10:28;;;;;;;3.70;2.13;;;;;;;6.82;100.00;99434.81;5090758;28;20504;-74
2022/11/16 20:12:59;;;;;;;2.55;1.60;;;;;;;6.86;100.00;99435.53;5103443;28;20030;-74
2022/11/16 20:15:29;;;;;;;4.57;2.55;;;;;;;6.81;100.00;99434.88;5076814;28;20189;-74
2022/11/16 20:18:00;;;;;;;4.63;2.00;;;;;;;6.80;100.00;99434.00;5072656;28;20044;-74
2022/11/16 20:20:31;;;;;;;6.38;2.05;;;;;;;6.86;100.00;99427.72;5043984;28;20108;-74
2022/11/16 20:23:01;;;;;;;3.05;1.75;;;;;;;6.86;100.00;99426.00;5068482;28;20037;-74
2022/11/16 20:25:32;;;;;;;3.15;1.70;;;;;;;6.71;100.00;99420.53;5131930;28;20046;-74
2022/11/16 20:28:04;;;;;;;3.20;1.65;;;;;;;6.79;100.00;99428.88;5083793;28;20112;-73
2022/11/16 20:30:35;;;;;;;3.95;1.60;;;;;;;6.77;100.00;99420.31;5092459;28;20494;-73
2022/11/16 20:33:05;;;;;;;2.85;1.60;;;;;;;6.76;100.00;99426.41;5089457;28;20037;-73
2022/11/16 20:35:36;;;;;;;3.47;1.80;;;;;;;6.80;100.00;99431.41;5113795;28;20493;-73
2022/11/16 20:38:06;;;;;;;2.47;1.67;;;;;;;6.75;100.00;99435.94;5082440;28;20487;-73
2022/11/16 20:40:39;;;;;;;4.22;2.30;;;;;;;6.83;100.00;99440.84;5068633;28;20223;-74
2022/11/16 20:43:13;;;;;;;4.13;2.10;;;;;;;6.73;100.00;99432.56;5092431;28;20378;-74
2022/11/16 20:45:43;;;;;;;4.32;2.75;;;;;;;6.81;100.00;99440.06;5075085;28;20025;-73
2022/11/16 20:48:14;;;;;;;3.20;2.20;;;;;;;6.80;100.00;99440.97;5088205;28;20056;-73
2022/11/16 20:50:50;;;;;;;3.88;2.10;;;;;;;6.78;100.00;99446.19;5123738;28;20015;-74
2022/11/16 20:53:21;;;;;;;4.65;2.60;;;;;;;6.80;100.00;99444.38;5094763;28;20094;-73
2022/11/16 20:55:52;;;;;;;3.28;2.20;;;;;;;6.82;100.00;99458.19;5090656;28;20666;-73
2022/11/16 20:58:23;;;;;;;3.17;2.03;;;;;;;6.82;100.00;99452.13;5097383;28;20064;-74
2022/11/16 21:00:54;;;;;;;3.63;2.40;;;;;;;6.81;100.00;99455.63;5083586;28;20312;-74
2022/11/16 21:03:25;;;;;;;3.67;2.25;;;;;;;6.80;100.00;99456.53;5108438;28;20030;-73
2022/11/16 21:05:56;;;;;;;3.03;2.08;;;;;;;6.73;100.00;99463.72;5105404;28;20037;-73
2022/11/16 21:08:30;;;;;;;3.58;2.17;;;;;;;6.72;100.00;99469.81;5126117;28;20503;-73
2022/11/16 21:11:01;;;;;;;4.05;2.50;;;;;;;6.77;100.00;99467.03;5118072;28;20026;-73
2022/11/16 21:16:21;;;;;;;3.60;2.30;;;;;;;6.74;100.00;99470.59;5086971;28;20087;-73
2022/11/16 21:18:54;;;;;;;4.70;2.75;;;;;;;6.68;100.00;99469.97;5099451;28;20027;-73
2022/11/16 21:21:25;;;;;;;4.45;2.60;;;;;;;6.69;100.00;99466.47;5081113;28;20536;-73
2022/11/16 21:23:56;;;;;;;4.78;2.97;;;;;;;6.66;100.00;99458.81;5108712;28;20110;-73
2022/11/16 21:26:29;;;;;;;4.40;3.08;;;;;;;6.66;100.00;99461.41;5084193;28;20071;-73
2022/11/16 21:29:00;;;;;;;4.72;2.88;;;;;;;6.64;100.00;99465.81;5093700;28;20236;-73
2022/11/16 21:31:34;;;;;;;4.30;3.15;;;;;;;6.64;100.00;99458.03;5093295;28;20056;-73
2022/11/16 21:34:06;;;;;;;6.05;3.63;;;;;;;6.67;100.00;99450.97;5069993;28;20101;-74
2022/11/16 21:36:36;;;;;;;5.00;3.60;;;;;;;6.65;100.00;99447.59;5069201;28;20476;-74
2022/11/16 21:39:07;;;;;;;7.38;3.60;;;;;;;6.70;100.00;99437.88;5083287;28;20027;-74
2022/11/16 21:41:38;;;;;;;5.28;3.63;;;;;;;6.64;100.00;99443.31;5080560;28;20181;-73
2022/11/16 21:44:08;;;;;;;5.70;3.80;;;;;;;6.58;100.00;99440.09;5101476;28;20044;-73
2022/11/16 21:46:39;;;;;;;4.93;3.40;;;;;;;6.54;100.00;99434.16;5094833;28;20362;-73
2022/11/16 21:49:09;;;;;;;5.20;3.42;;;;;;;6.66;100.00;99440.63;5081385;28;20030;-73
2022/11/16 21:51:40;;;;;;;4.25;3.28;;;;;;;6.63;100.00;99435.56;5409374;23;20016;-73
2022/11/16 21:54:11;;;;;;;5.07;3.42;;;;;;;6.67;100.00;99430.22;5073961;28;20041;-72
2022/11/16 21:56:41;;;;;;;4.97;3.28;;;;;;;6.68;100.00;99433.63;5041925;28;20024;-73
2022/11/16 21:59:12;;;;;;;4.82;3.40;;;;;;;6.63;100.00;99432.97;5046024;29;20029;-74
2022/11/16 22:02:16;;;;;;;5.47;3.50;;;;;;;6.62;100.00;99433.88;5029255;29;20025;-74
2022/11/16 22:07:37;;;;;;;5.43;3.50;;;;;;;6.55;100.00;99437.59;5032294;29;20048;-73
2022/11/16 22:10:10;;;;;;;5.00;3.30;;;;;;;6.60;100.00;99440.88;5020347;29;20034;-73
2022/11/16 22:12:41;;;;;;;4.50;3.10;;;;;;;6.62;100.00;99444.25;5031379;28;20037;-73
2022/11/16 22:15:12;;;;;;;5.43;3.65;;;;;;;6.59;100.00;99454.75;5023840;29;20284;-73
2022/11/16 22:17:43;;;;;;;5.30;3.78;;;;;;;6.55;100.00;99443.63;5031739;29;20060;-73
2022/11/16 22:20:14;;;;;;;4.78;3.50;;;;;;;6.52;100.00;99448.94;5022412;29;20112;-73
2022/11/16 22:22:44;;;;;;;5.40;3.42;;;;;;;6.54;100.00;99439.34;5022076;29;20114;-73
2022/11/16 22:25:15;;;;;;;6.05;3.80;;;;;;;6.50;100.00;99449.91;5021576;29;20037;-73
2022/11/16 22:27:47;;;;;;;6.63;3.75;;;;;;;6.49;100.00;99432.63;5021158;29;20064;-73
2022/11/16 22:30:19;;;;;;;6.75;4.30;;;;;;;6.53;100.00;99429.88;5057502;29;20043;-72
2022/11/16 22:32:50;;;;;;;5.35;4.22;;;;;;;6.50;100.00;99419.63;5037807;29;20045;-72
2022/11/16 22:35:21;;;;;;;5.60;4.05;;;;;;;6.58;100.00;99411.53;5087337;29;20033;-73
2022/11/16 22:37:52;;;;;;;5.68;4.03;;;;;;;6.54;100.00;99404.75;5061129;29;20504;-72
2022/11/16 22:40:23;;;;;;;7.10;4.55;;;;;;;6.48;100.00;99407.59;5093062;28;20061;-73
2022/11/16 22:42:57;;;;;;;6.47;4.70;;;;;;;6.42;100.00;99410.44;5050679;29;20045;-73
2022/11/16 22:45:27;;;;;;;5.90;4.28;;;;;;;6.51;100.00;99408.34;5057869;28;20029;-72
2022/11/16 22:47:58;;;;;;;6.93;4.57;;;;;;;6.48;100.00;99398.06;5044381;29;20038;-73
2022/11/16 22:50:29;;;;;;;5.28;4.10;;;;;;;6.50;100.00;99392.81;5057936;29;20121;-73
2022/11/16 22:52:59;;;;;;;4.95;4.03;;;;;;;6.67;100.00;99400.78;5025644;29;20037;-73
2022/11/16 22:55:34;;;;;;;5.13;3.78;;;;;;;6.57;100.00;99389.09;5035074;29;20125;-73
2022/11/16 22:58:05;;;;;;;6.07;3.80;;;;;;;6.54;100.00;99391.78;5045956;29;20033;-73
2022/11/16 23:00:35;;;;;;;6.25;4.00;;;;;;;6.49;100.00;99396.31;5024374;29;20582;-73
2022/11/16 23:03:06;;;;;;;6.03;4.15;;;;;;;6.51;100.00;99381.53;5017780;29;20041;-73
2022/11/16 23:05:36;;;;;;;6.10;3.90;;;;;;;6.48;100.00;99382.50;5017061;29;20033;-73
2022/11/16 23:08:07;;;;;;;5.55;3.75;;;;;;;6.52;100.00;99372.84;5083450;29;20108;-73
2022/11/16 23:15:47;;;;;;;4.75;3.63;;;;;;;6.45;100.00;99384.38;5081870;29;20124;-73
2022/11/16 23:16:17;;;;;;;7.30;4.18;;;;;;;6.45;100.00;99379.19;5021207;29;20096;-73
2022/11/16 23:18:48;;;;;;;6.13;3.95;;;;;;;6.41;100.00;99382.78;5031992;29;20025;-73
2022/11/16 23:29:52;;;;;;;7.18;3.55;;;;;;;6.35;100.00;99378.69;5023810;29;20459;-72
2022/11/16 23:32:23;;;;;;;6.07;3.83;;;;;;;6.38;100.00;99372.50;5091046;29;20123;-73
2022/11/16 23:34:54;;;;;;;5.72;3.60;;;;;;;6.37;100.00;99368.22;5050139;29;20037;-73
2022/11/16 23:37:26;;;;;;;5.90;3.75;;;;;;;6.35;100.00;99365.72;5051179;29;20509;-73
2022/11/16 23:39:57;;;;;;;6.03;3.95;;;;;;;6.42;100.00;99353.34;5024785;29;20128;-73
2022/11/16 23:45:17;;;;;;;6.07;4.22;;;;;;;6.24;100.00;99343.69;5024210;29;20091;-73
2022/11/16 23:47:48;;;;;;;8.00;4.70;;;;;;;6.23;100.00;99335.03;5023314;29;20412;-73
2022/11/16 23:50:18;;;;;;;6.75;4.68;;;;;;;6.17;100.00;99342.19;5024060;29;20061;-72
2022/11/16 23:52:49;;;;;;;6.82;4.65;;;;;;;6.22;100.00;99335.13;5019495;29;20049;-72
2022/11/16 23:55:21;;;;;;;6.72;4.50;;;;;;;6.23;100.00;99342.00;5022304;29;20144;-73
2022/11/16 23:57:52;;;;;;;6.07;4.43;;;;;;;6.19;100.00;99335.19;5028342;29;20379;-73
